sensor_id;sensor_type;location;lat;lon;timestamp;P1;durP1;ratioP1;P2;durP2;ratioP2
10122;SDS011;5101;49.038;8.710;2023-05-10T00:01:27;5.25;;;0.85;;
10122;SDS011;5101;49.038;8.710;2023-05-10T00:03:52;0.30;;;0.30;;
10122;SDS011;5101;49.038;8.710;2023-05-10T00:06:18;1.42;;;0.50;;
10122;SDS011;5101;49.038;8.710;2023-05-10T00:08:44;0.40;;;0.38;;
10122;SDS011;5101;49.038;8.710;2023-05-10T00:11:10;1.55;;;0.50;;
10122;SDS011;5101;49.038;8.710;2023-05-10T00:13:36;2.30;;;0.40;;
10122;SDS011;5101;49.038;8.710;2023-05-10T00:16:01;0.32;;;0.32;;
10122;SDS011;5101;49.038;8.710;2023-05-10T00:18:27;0.52;;;0.50;;
10122;SDS011;5101;49.038;8.710;2023-05-10T00:20:52;0.75;;;0.40;;
10122;SDS011;5101;49.038;8.710;2023-05-10T00:23:18;2.05;;;0.20;;
10122;SDS011;5101;49.038;8.710;2023-05-10T00:25:43;0.40;;;0.20;;
10122;SDS011;5101;49.038;8.710;2023-05-10T00:28:09;0.63;;;0.20;;
10122;SDS011;5101;49.038;8.710;2023-05-10T00:30:34;0.30;;;0.30;;
10122;SDS011;5101;49.038;8.710;2023-05-10T00:33:00;1.05;;;0.30;;
10122;SDS011;5101;49.038;8.710;2023-05-10T00:35:25;5.55;;;0.52;;
10122;SDS011;5101;49.038;8.710;2023-05-10T00:37:51;0.40;;;0.30;;
10122;SDS011;5101;49.038;8.710;2023-05-10T00:40:17;1.00;;;0.50;;
10122;SDS011;5101;49.038;8.710;2023-05-10T00:42:42;3.30;;;0.50;;
10122;SDS011;5101;49.038;8.710;2023-05-10T00:45:08;0.82;;;0.40;;
10122;SDS011;5101;49.038;8.710;2023-05-10T00:47:34;1.00;;;0.60;;
10122;SDS011;5101;49.038;8.710;2023-05-10T00:49:59;0.43;;;0.40;;
10122;SDS011;5101;49.038;8.710;2023-05-10T00:52:28;1.30;;;0.30;;
10122;SDS011;5101;49.038;8.710;2023-05-10T00:54:54;0.30;;;0.30;;
10122;SDS011;5101;49.038;8.710;2023-05-10T00:57:19;0.68;;;0.40;;
10122;SDS011;5101;49.038;8.710;2023-05-10T00:59:45;0.43;;;0.30;;
10122;SDS011;5101;49.038;8.710;2023-05-10T01:02:11;0.52;;;0.40;;
10122;SDS011;5101;49.038;8.710;2023-05-10T01:04:38;0.80;;;0.30;;
10122;SDS011;5101;49.038;8.710;2023-05-10T01:07:04;1.85;;;0.88;;
10122;SDS011;5101;49.038;8.710;2023-05-10T01:09:29;0.80;;;0.80;;
10122;SDS011;5101;49.038;8.710;2023-05-10T01:11:55;1.58;;;0.85;;
10122;SDS011;5101;49.038;8.710;2023-05-10T01:14:21;1.15;;;0.60;;
10122;SDS011;5101;49.038;8.710;2023-05-10T01:16:48;1.30;;;0.60;;
10122;SDS011;5101;49.038;8.710;2023-05-10T01:19:24;5.07;;;0.80;;
10122;SDS011;5101;49.038;8.710;2023-05-10T01:25:04;0.88;;;0.52;;
10122;SDS011;5101;49.038;8.710;2023-05-10T01:28:07;1.00;;;0.50;;
10122;SDS011;5101;49.038;8.710;2023-05-10T01:36:24;0.98;;;0.90;;
10122;SDS011;5101;49.038;8.710;2023-05-10T01:41:49;1.17;;;0.95;;
10122;SDS011;5101;49.038;8.710;2023-05-10T01:44:34;0.60;;;0.55;;
10122;SDS011;5101;49.038;8.710;2023-05-10T01:47:25;0.60;;;0.60;;
10122;SDS011;5101;49.038;8.710;2023-05-10T01:50:00;2.85;;;0.75;;
10122;SDS011;5101;49.038;8.710;2023-05-10T01:52:30;2.25;;;0.85;;
10122;SDS011;5101;49.038;8.710;2023-05-10T01:55:02;2.25;;;0.70;;
10122;SDS011;5101;49.038;8.710;2023-05-10T01:57:35;1.00;;;0.80;;
10122;SDS011;5101;49.038;8.710;2023-05-10T02:00:03;3.58;;;0.90;;
10122;SDS011;5101;49.038;8.710;2023-05-10T02:02:30;0.80;;;0.80;;
10122;SDS011;5101;49.038;8.710;2023-05-10T02:05:01;0.75;;;0.75;;
10122;SDS011;5101;49.038;8.710;2023-05-10T02:07:30;1.35;;;0.80;;
10122;SDS011;5101;49.038;8.710;2023-05-10T02:09:57;0.77;;;0.77;;
10122;SDS011;5101;49.038;8.710;2023-05-10T02:12:24;0.82;;;0.82;;
10122;SDS011;5101;49.038;8.710;2023-05-10T02:14:51;0.90;;;0.88;;
10122;SDS011;5101;49.038;8.710;2023-05-10T02:17:18;0.95;;;0.95;;
10122;SDS011;5101;49.038;8.710;2023-05-10T02:19:45;1.00;;;1.00;;
10122;SDS011;5101;49.038;8.710;2023-05-10T02:22:12;0.93;;;0.90;;
10122;SDS011;5101;49.038;8.710;2023-05-10T02:24:38;1.23;;;1.13;;
10122;SDS011;5101;49.038;8.710;2023-05-10T02:27:05;1.63;;;1.20;;
10122;SDS011;5101;49.038;8.710;2023-05-10T02:29:31;1.52;;;1.27;;
10122;SDS011;5101;49.038;8.710;2023-05-10T02:31:58;1.23;;;1.23;;
10122;SDS011;5101;49.038;8.710;2023-05-10T02:34:25;1.27;;;1.27;;
10122;SDS011;5101;49.038;8.710;2023-05-10T02:36:52;1.70;;;1.58;;
10122;SDS011;5101;49.038;8.710;2023-05-10T02:39:19;1.80;;;1.70;;
10122;SDS011;5101;49.038;8.710;2023-05-10T02:41:46;2.65;;;1.50;;
10122;SDS011;5101;49.038;8.710;2023-05-10T02:44:15;1.65;;;1.55;;
10122;SDS011;5101;49.038;8.710;2023-05-10T02:46:43;2.08;;;1.98;;
10122;SDS011;5101;49.038;8.710;2023-05-10T02:49:09;2.38;;;2.03;;
10122;SDS011;5101;49.038;8.710;2023-05-10T02:51:35;2.88;;;1.60;;
10122;SDS011;5101;49.038;8.710;2023-05-10T02:54:13;1.92;;;1.83;;
10122;SDS011;5101;49.038;8.710;2023-05-10T02:56:46;2.58;;;2.17;;
10122;SDS011;5101;49.038;8.710;2023-05-10T02:59:14;3.17;;;1.90;;
10122;SDS011;5101;49.038;8.710;2023-05-10T03:01:39;2.35;;;2.15;;
10122;SDS011;5101;49.038;8.710;2023-05-10T03:04:05;2.72;;;2.15;;
10122;SDS011;5101;49.038;8.710;2023-05-10T03:06:31;2.17;;;2.08;;
10122;SDS011;5101;49.038;8.710;2023-05-10T03:08:56;2.55;;;2.25;;
10122;SDS011;5101;49.038;8.710;2023-05-10T03:11:34;3.15;;;2.53;;
10122;SDS011;5101;49.038;8.710;2023-05-10T03:16:46;3.10;;;2.90;;
10122;SDS011;5101;49.038;8.710;2023-05-10T03:19:22;3.90;;;3.08;;
10122;SDS011;5101;49.038;8.710;2023-05-10T03:22:12;3.08;;;2.88;;
10122;SDS011;5101;49.038;8.710;2023-05-10T03:24:43;3.45;;;3.20;;
10122;SDS011;5101;49.038;8.710;2023-05-10T03:27:10;3.25;;;2.30;;
10122;SDS011;5101;49.038;8.710;2023-05-10T03:29:36;2.65;;;2.20;;
10122;SDS011;5101;49.038;8.710;2023-05-10T03:32:03;3.58;;;2.58;;
10122;SDS011;5101;49.038;8.710;2023-05-10T03:34:29;3.65;;;2.40;;
10122;SDS011;5101;49.038;8.710;2023-05-10T03:36:56;2.33;;;2.22;;
10122;SDS011;5101;49.038;8.710;2023-05-10T03:39:21;4.20;;;2.50;;
10122;SDS011;5101;49.038;8.710;2023-05-10T03:41:47;2.45;;;2.28;;
10122;SDS011;5101;49.038;8.710;2023-05-10T03:44:13;2.20;;;2.10;;
10122;SDS011;5101;49.038;8.710;2023-05-10T03:46:38;4.38;;;2.13;;
10122;SDS011;5101;49.038;8.710;2023-05-10T03:49:03;2.35;;;2.15;;
10122;SDS011;5101;49.038;8.710;2023-05-10T03:51:29;2.38;;;2.00;;
10122;SDS011;5101;49.038;8.710;2023-05-10T03:53:56;3.65;;;2.25;;
10122;SDS011;5101;49.038;8.710;2023-05-10T03:56:21;2.22;;;2.13;;
10122;SDS011;5101;49.038;8.710;2023-05-10T03:58:47;3.50;;;1.90;;
10122;SDS011;5101;49.038;8.710;2023-05-10T04:01:12;1.90;;;1.80;;
10122;SDS011;5101;49.038;8.710;2023-05-10T04:03:38;2.10;;;1.92;;
10122;SDS011;5101;49.038;8.710;2023-05-10T04:06:03;1.88;;;1.77;;
10122;SDS011;5101;49.038;8.710;2023-05-10T04:08:30;2.03;;;1.85;;
10122;SDS011;5101;49.038;8.710;2023-05-10T04:11:09;2.15;;;2.05;;
10122;SDS011;5101;49.038;8.710;2023-05-10T04:13:36;2.28;;;2.03;;
10122;SDS011;5101;49.038;8.710;2023-05-10T04:16:03;2.30;;;2.10;;
10122;SDS011;5101;49.038;8.710;2023-05-10T04:18:29;3.22;;;2.30;;
10122;SDS011;5101;49.038;8.710;2023-05-10T04:20:54;2.30;;;2.10;;
10122;SDS011;5101;49.038;8.710;2023-05-10T04:23:20;2.53;;;2.33;;
10122;SDS011;5101;49.038;8.710;2023-05-10T04:25:45;5.55;;;2.30;;
10122;SDS011;5101;49.038;8.710;2023-05-10T04:28:11;2.17;;;2.03;;
10122;SDS011;5101;49.038;8.710;2023-05-10T04:30:36;2.10;;;1.95;;
10122;SDS011;5101;49.038;8.710;2023-05-10T04:33:02;3.63;;;1.80;;
10122;SDS011;5101;49.038;8.710;2023-05-10T04:35:28;5.70;;;2.15;;
10122;SDS011;5101;49.038;8.710;2023-05-10T04:37:54;3.00;;;2.05;;
10122;SDS011;5101;49.038;8.710;2023-05-10T04:40:19;2.10;;;2.00;;
10122;SDS011;5101;49.038;8.710;2023-05-10T04:42:45;2.33;;;2.10;;
10122;SDS011;5101;49.038;8.710;2023-05-10T04:45:11;2.53;;;2.33;;
10122;SDS011;5101;49.038;8.710;2023-05-10T04:47:37;2.15;;;1.95;;
10122;SDS011;5101;49.038;8.710;2023-05-10T04:50:03;2.17;;;1.70;;
10122;SDS011;5101;49.038;8.710;2023-05-10T04:52:29;2.58;;;1.70;;
10122;SDS011;5101;49.038;8.710;2023-05-10T04:54:54;3.65;;;1.70;;
10122;SDS011;5101;49.038;8.710;2023-05-10T04:57:20;1.75;;;1.65;;
10122;SDS011;5101;49.038;8.710;2023-05-10T04:59:46;3.55;;;1.63;;
10122;SDS011;5101;49.038;8.710;2023-05-10T05:02:11;2.55;;;1.48;;
10122;SDS011;5101;49.038;8.710;2023-05-10T05:04:37;2.17;;;1.63;;
10122;SDS011;5101;49.038;8.710;2023-05-10T05:07:02;2.55;;;1.60;;
10122;SDS011;5101;49.038;8.710;2023-05-10T05:09:28;3.55;;;1.80;;
10122;SDS011;5101;49.038;8.710;2023-05-10T05:11:53;1.77;;;1.67;;
10122;SDS011;5101;49.038;8.710;2023-05-10T05:14:19;2.80;;;2.00;;
10122;SDS011;5101;49.038;8.710;2023-05-10T05:16:45;2.10;;;2.00;;
10122;SDS011;5101;49.038;8.710;2023-05-10T05:19:11;2.30;;;2.10;;
10122;SDS011;5101;49.038;8.710;2023-05-10T05:21:37;2.00;;;1.90;;
10122;SDS011;5101;49.038;8.710;2023-05-10T05:24:02;2.20;;;2.00;;
10122;SDS011;5101;49.038;8.710;2023-05-10T05:26:28;3.50;;;2.00;;
10122;SDS011;5101;49.038;8.710;2023-05-10T05:28:54;2.13;;;1.55;;
10122;SDS011;5101;49.038;8.710;2023-05-10T05:31:19;1.92;;;1.80;;
10122;SDS011;5101;49.038;8.710;2023-05-10T05:33:45;1.70;;;1.60;;
10122;SDS011;5101;49.038;8.710;2023-05-10T05:36:11;3.45;;;1.95;;
10122;SDS011;5101;49.038;8.710;2023-05-10T05:38:36;2.95;;;1.92;;
10122;SDS011;5101;49.038;8.710;2023-05-10T05:41:02;3.90;;;2.10;;
10122;SDS011;5101;49.038;8.710;2023-05-10T05:43:28;3.85;;;1.67;;
10122;SDS011;5101;49.038;8.710;2023-05-10T05:45:53;4.10;;;1.90;;
10122;SDS011;5101;49.038;8.710;2023-05-10T05:48:19;1.92;;;1.70;;
10122;SDS011;5101;49.038;8.710;2023-05-10T05:50:45;1.83;;;1.73;;
10122;SDS011;5101;49.038;8.710;2023-05-10T05:53:11;1.95;;;1.77;;
10122;SDS011;5101;49.038;8.710;2023-05-10T05:55:37;5.22;;;1.45;;
10122;SDS011;5101;49.038;8.710;2023-05-10T05:58:03;2.35;;;1.23;;
10122;SDS011;5101;49.038;8.710;2023-05-10T06:00:28;1.23;;;1.10;;
10122;SDS011;5101;49.038;8.710;2023-05-10T06:02:54;1.40;;;1.30;;
10122;SDS011;5101;49.038;8.710;2023-05-10T06:05:19;1.13;;;1.10;;
10122;SDS011;5101;49.038;8.710;2023-05-10T06:07:45;2.75;;;1.27;;
10122;SDS011;5101;49.038;8.710;2023-05-10T06:10:11;1.60;;;1.00;;
10122;SDS011;5101;49.038;8.710;2023-05-10T06:12:37;2.72;;;1.27;;
10122;SDS011;5101;49.038;8.710;2023-05-10T06:15:03;2.47;;;1.10;;
10122;SDS011;5101;49.038;8.710;2023-05-10T06:17:28;0.98;;;0.98;;
10122;SDS011;5101;49.038;8.710;2023-05-10T06:19:54;0.90;;;0.90;;
10122;SDS011;5101;49.038;8.710;2023-05-10T06:22:20;0.88;;;0.88;;
10122;SDS011;5101;49.038;8.710;2023-05-10T06:24:47;1.02;;;1.00;;
10122;SDS011;5101;49.038;8.710;2023-05-10T06:27:13;2.38;;;0.77;;
10122;SDS011;5101;49.038;8.710;2023-05-10T06:29:38;2.40;;;0.70;;
10122;SDS011;5101;49.038;8.710;2023-05-10T06:32:04;0.47;;;0.47;;
10122;SDS011;5101;49.038;8.710;2023-05-10T06:34:30;2.15;;;0.65;;
10122;SDS011;5101;49.038;8.710;2023-05-10T06:36:55;1.23;;;0.88;;
10122;SDS011;5101;49.038;8.710;2023-05-10T06:39:20;1.38;;;1.00;;
10122;SDS011;5101;49.038;8.710;2023-05-10T06:41:46;2.17;;;0.65;;
10122;SDS011;5101;49.038;8.710;2023-05-10T06:44:11;1.17;;;0.60;;
10122;SDS011;5101;49.038;8.710;2023-05-10T06:46:37;2.67;;;0.70;;
10122;SDS011;5101;49.038;8.710;2023-05-10T06:49:03;1.95;;;0.70;;
10122;SDS011;5101;49.038;8.710;2023-05-10T06:51:29;3.60;;;0.80;;
10122;SDS011;5101;49.038;8.710;2023-05-10T06:53:54;1.63;;;0.60;;
10122;SDS011;5101;49.038;8.710;2023-05-10T06:56:20;3.30;;;1.15;;
10122;SDS011;5101;49.038;8.710;2023-05-10T06:58:47;1.42;;;1.10;;
10122;SDS011;5101;49.038;8.710;2023-05-10T07:01:12;1.67;;;1.10;;
10122;SDS011;5101;49.038;8.710;2023-05-10T07:03:38;1.35;;;1.02;;
10122;SDS011;5101;49.038;8.710;2023-05-10T07:06:04;1.00;;;0.95;;
10122;SDS011;5101;49.038;8.710;2023-05-10T07:08:35;1.05;;;0.80;;
10122;SDS011;5101;49.038;8.710;2023-05-10T07:11:04;2.65;;;0.93;;
10122;SDS011;5101;49.038;8.710;2023-05-10T07:13:32;0.80;;;0.80;;
10122;SDS011;5101;49.038;8.710;2023-05-10T07:15:58;3.97;;;1.00;;
10122;SDS011;5101;49.038;8.710;2023-05-10T07:18:24;1.17;;;0.80;;
10122;SDS011;5101;49.038;8.710;2023-05-10T07:20:50;0.88;;;0.75;;
10122;SDS011;5101;49.038;8.710;2023-05-10T07:23:16;1.75;;;0.73;;
10122;SDS011;5101;49.038;8.710;2023-05-10T07:25:45;1.52;;;0.70;;
10122;SDS011;5101;49.038;8.710;2023-05-10T07:28:11;2.78;;;1.00;;
10122;SDS011;5101;49.038;8.710;2023-05-10T07:30:37;0.88;;;0.50;;
10122;SDS011;5101;49.038;8.710;2023-05-10T07:33:02;0.85;;;0.85;;
10122;SDS011;5101;49.038;8.710;2023-05-10T07:35:28;0.90;;;0.50;;
10122;SDS011;5101;49.038;8.710;2023-05-10T07:37:53;5.05;;;0.68;;
10122;SDS011;5101;49.038;8.710;2023-05-10T07:40:19;1.45;;;0.70;;
10122;SDS011;5101;49.038;8.710;2023-05-10T07:42:44;1.48;;;0.70;;
10122;SDS011;5101;49.038;8.710;2023-05-10T07:45:10;1.88;;;1.00;;
10122;SDS011;5101;49.038;8.710;2023-05-10T07:47:35;0.60;;;0.60;;
10122;SDS011;5101;49.038;8.710;2023-05-10T07:50:01;2.33;;;0.50;;
10122;SDS011;5101;49.038;8.710;2023-05-10T07:52:26;1.15;;;0.68;;
10122;SDS011;5101;49.038;8.710;2023-05-10T07:54:52;2.15;;;0.60;;
10122;SDS011;5101;49.038;8.710;2023-05-10T07:57:18;0.68;;;0.63;;
10122;SDS011;5101;49.038;8.710;2023-05-10T07:59:43;1.20;;;0.52;;
10122;SDS011;5101;49.038;8.710;2023-05-10T08:02:10;1.55;;;0.40;;
10122;SDS011;5101;49.038;8.710;2023-05-10T08:04:35;0.63;;;0.38;;
10122;SDS011;5101;49.038;8.710;2023-05-10T08:07:01;2.10;;;0.70;;
10122;SDS011;5101;49.038;8.710;2023-05-10T08:09:26;1.83;;;0.52;;
10122;SDS011;5101;49.038;8.710;2023-05-10T08:11:52;1.27;;;0.75;;
10122;SDS011;5101;49.038;8.710;2023-05-10T08:14:17;1.23;;;0.80;;
10122;SDS011;5101;49.038;8.710;2023-05-10T08:16:43;0.88;;;0.88;;
10122;SDS011;5101;49.038;8.710;2023-05-10T08:19:08;1.10;;;0.70;;
10122;SDS011;5101;49.038;8.710;2023-05-10T08:21:34;0.50;;;0.50;;
10122;SDS011;5101;49.038;8.710;2023-05-10T08:24:00;0.85;;;0.60;;
10122;SDS011;5101;49.038;8.710;2023-05-10T08:26:26;0.85;;;0.40;;
10122;SDS011;5101;49.038;8.710;2023-05-10T08:28:51;2.90;;;0.32;;
10122;SDS011;5101;49.038;8.710;2023-05-10T08:31:17;1.30;;;0.40;;
10122;SDS011;5101;49.038;8.710;2023-05-10T08:33:43;0.20;;;0.20;;
10122;SDS011;5101;49.038;8.710;2023-05-10T08:36:08;2.78;;;0.40;;
10122;SDS011;5101;49.038;8.710;2023-05-10T08:38:34;0.45;;;0.30;;
10122;SDS011;5101;49.038;8.710;2023-05-10T08:41:00;0.30;;;0.30;;
10122;SDS011;5101;49.038;8.710;2023-05-10T08:43:27;1.35;;;0.50;;
10122;SDS011;5101;49.038;8.710;2023-05-10T08:45:56;1.10;;;0.52;;
10122;SDS011;5101;49.038;8.710;2023-05-10T08:48:26;1.00;;;0.43;;
10122;SDS011;5101;49.038;8.710;2023-05-10T08:50:54;1.27;;;0.40;;
10122;SDS011;5101;49.038;8.710;2023-05-10T08:53:23;0.40;;;0.40;;
10122;SDS011;5101;49.038;8.710;2023-05-10T08:55:52;2.60;;;0.30;;
10122;SDS011;5101;49.038;8.710;2023-05-10T08:58:18;1.88;;;0.40;;
10122;SDS011;5101;49.038;8.710;2023-05-10T09:00:45;0.52;;;0.30;;
10122;SDS011;5101;49.038;8.710;2023-05-10T09:03:11;0.30;;;0.30;;
10122;SDS011;5101;49.038;8.710;2023-05-10T09:05:38;0.52;;;0.30;;
10122;SDS011;5101;49.038;8.710;2023-05-10T09:08:03;0.98;;;0.40;;
10122;SDS011;5101;49.038;8.710;2023-05-10T09:10:30;0.25;;;0.25;;
10122;SDS011;5101;49.038;8.710;2023-05-10T09:12:56;1.45;;;0.47;;
10122;SDS011;5101;49.038;8.710;2023-05-10T09:15:22;1.55;;;0.32;;
10122;SDS011;5101;49.038;8.710;2023-05-10T09:17:48;0.40;;;0.25;;
10122;SDS011;5101;49.038;8.710;2023-05-10T09:20:14;0.30;;;0.25;;
10122;SDS011;5101;49.038;8.710;2023-05-10T09:22:42;0.40;;;0.38;;
10122;SDS011;5101;49.038;8.710;2023-05-10T09:25:11;0.80;;;0.38;;
10122;SDS011;5101;49.038;8.710;2023-05-10T09:27:41;1.40;;;0.47;;
10122;SDS011;5101;49.038;8.710;2023-05-10T09:30:10;0.85;;;0.32;;
10122;SDS011;5101;49.038;8.710;2023-05-10T09:32:41;1.05;;;0.38;;
10122;SDS011;5101;49.038;8.710;2023-05-10T09:35:13;0.30;;;0.30;;
10122;SDS011;5101;49.038;8.710;2023-05-10T09:37:40;0.40;;;0.40;;
10122;SDS011;5101;49.038;8.710;2023-05-10T09:40:07;0.82;;;0.60;;
10122;SDS011;5101;49.038;8.710;2023-05-10T09:42:36;0.77;;;0.30;;
10122;SDS011;5101;49.038;8.710;2023-05-10T09:45:03;0.43;;;0.43;;
10122;SDS011;5101;49.038;8.710;2023-05-10T09:47:31;0.35;;;0.35;;
10122;SDS011;5101;49.038;8.710;2023-05-10T09:49:57;1.77;;;0.68;;
10122;SDS011;5101;49.038;8.710;2023-05-10T09:52:27;1.85;;;0.68;;
10122;SDS011;5101;49.038;8.710;2023-05-10T09:54:53;1.30;;;0.50;;
10122;SDS011;5101;49.038;8.710;2023-05-10T09:57:23;0.63;;;0.50;;
10122;SDS011;5101;49.038;8.710;2023-05-10T09:59:50;0.55;;;0.55;;
10122;SDS011;5101;49.038;8.710;2023-05-10T10:02:18;0.65;;;0.60;;
10122;SDS011;5101;49.038;8.710;2023-05-10T10:04:44;2.70;;;0.50;;
10122;SDS011;5101;49.038;8.710;2023-05-10T10:07:13;3.20;;;0.52;;
10122;SDS011;5101;49.038;8.710;2023-05-10T10:09:39;1.90;;;0.60;;
10122;SDS011;5101;49.038;8.710;2023-05-10T10:12:05;1.13;;;0.77;;
10122;SDS011;5101;49.038;8.710;2023-05-10T10:14:30;4.60;;;0.80;;
10122;SDS011;5101;49.038;8.710;2023-05-10T10:16:56;2.80;;;0.50;;
10122;SDS011;5101;49.038;8.710;2023-05-10T10:19:22;1.58;;;0.50;;
10122;SDS011;5101;49.038;8.710;2023-05-10T10:21:48;0.85;;;0.65;;
10122;SDS011;5101;49.038;8.710;2023-05-10T10:24:14;2.70;;;0.82;;
10122;SDS011;5101;49.038;8.710;2023-05-10T10:26:40;0.88;;;0.60;;
10122;SDS011;5101;49.038;8.710;2023-05-10T10:31:40;3.60;;;0.70;;
10122;SDS011;5101;49.038;8.710;2023-05-10T10:34:16;1.95;;;0.80;;
10122;SDS011;5101;49.038;8.710;2023-05-10T10:36:51;2.75;;;0.88;;
10122;SDS011;5101;49.038;8.710;2023-05-10T10:39:17;2.25;;;0.70;;
10122;SDS011;5101;49.038;8.710;2023-05-10T10:41:54;2.28;;;1.35;;
10122;SDS011;5101;49.038;8.710;2023-05-10T10:47:03;1.45;;;0.50;;
10122;SDS011;5101;49.038;8.710;2023-05-10T10:49:31;1.20;;;0.70;;
10122;SDS011;5101;49.038;8.710;2023-05-10T10:57:51;2.28;;;0.75;;
10122;SDS011;5101;49.038;8.710;2023-05-10T11:00:37;2.72;;;0.80;;
10122;SDS011;5101;49.038;8.710;2023-05-10T11:03:06;1.63;;;0.52;;
10122;SDS011;5101;49.038;8.710;2023-05-10T11:05:46;1.92;;;0.70;;
10122;SDS011;5101;49.038;8.710;2023-05-10T11:08:14;2.08;;;0.80;;
10122;SDS011;5101;49.038;8.710;2023-05-10T11:10:51;0.75;;;0.63;;
10122;SDS011;5101;49.038;8.710;2023-05-10T11:13:17;0.60;;;0.60;;
10122;SDS011;5101;49.038;8.710;2023-05-10T11:15:55;1.50;;;0.88;;
10122;SDS011;5101;49.038;8.710;2023-05-10T11:18:31;0.85;;;0.70;;
10122;SDS011;5101;49.038;8.710;2023-05-10T11:21:01;4.28;;;1.00;;
10122;SDS011;5101;49.038;8.710;2023-05-10T11:23:49;1.15;;;0.80;;
10122;SDS011;5101;49.038;8.710;2023-05-10T11:26:16;1.17;;;0.80;;
10122;SDS011;5101;49.038;8.710;2023-05-10T11:28:45;5.45;;;0.98;;
10122;SDS011;5101;49.038;8.710;2023-05-10T11:31:19;1.52;;;1.13;;
10122;SDS011;5101;49.038;8.710;2023-05-10T11:36:12;2.67;;;0.93;;
10122;SDS011;5101;49.038;8.710;2023-05-10T11:38:42;1.15;;;0.90;;
10122;SDS011;5101;49.038;8.710;2023-05-10T11:41:08;4.32;;;1.00;;
10122;SDS011;5101;49.038;8.710;2023-05-10T11:43:34;1.88;;;0.52;;
10122;SDS011;5101;49.038;8.710;2023-05-10T11:46:03;1.30;;;0.90;;
10122;SDS011;5101;49.038;8.710;2023-05-10T11:48:29;0.98;;;0.70;;
10122;SDS011;5101;49.038;8.710;2023-05-10T11:50:55;2.33;;;0.65;;
10122;SDS011;5101;49.038;8.710;2023-05-10T11:53:22;3.13;;;0.70;;
10122;SDS011;5101;49.038;8.710;2023-05-10T11:55:50;3.92;;;0.70;;
10122;SDS011;5101;49.038;8.710;2023-05-10T11:58:16;1.27;;;0.70;;
10122;SDS011;5101;49.038;8.710;2023-05-10T12:00:43;0.85;;;0.70;;
10122;SDS011;5101;49.038;8.710;2023-05-10T12:03:09;2.08;;;0.77;;
10122;SDS011;5101;49.038;8.710;2023-05-10T12:05:35;0.95;;;0.60;;
10122;SDS011;5101;49.038;8.710;2023-05-10T12:08:11;1.00;;;0.60;;
10122;SDS011;5101;49.038;8.710;2023-05-10T12:10:37;1.05;;;0.70;;
10122;SDS011;5101;49.038;8.710;2023-05-10T12:13:03;2.78;;;0.77;;
10122;SDS011;5101;49.038;8.710;2023-05-10T12:15:28;2.03;;;0.70;;
10122;SDS011;5101;49.038;8.710;2023-05-10T12:17:54;2.53;;;0.80;;
10122;SDS011;5101;49.038;8.710;2023-05-10T12:20:22;2.13;;;0.88;;
10122;SDS011;5101;49.038;8.710;2023-05-10T12:22:49;2.15;;;0.60;;
10122;SDS011;5101;49.038;8.710;2023-05-10T12:25:20;2.22;;;0.80;;
10122;SDS011;5101;49.038;8.710;2023-05-10T12:27:48;3.78;;;0.70;;
10122;SDS011;5101;49.038;8.710;2023-05-10T12:32:47;0.88;;;0.40;;
10122;SDS011;5101;49.038;8.710;2023-05-10T12:35:13;2.67;;;0.50;;
10122;SDS011;5101;49.038;8.710;2023-05-10T12:37:38;1.20;;;0.55;;
10122;SDS011;5101;49.038;8.710;2023-05-10T12:40:07;2.35;;;0.88;;
10122;SDS011;5101;49.038;8.710;2023-05-10T12:42:34;1.33;;;0.43;;
10122;SDS011;5101;49.038;8.710;2023-05-10T12:45:01;1.85;;;0.50;;
10122;SDS011;5101;49.038;8.710;2023-05-10T12:47:27;2.55;;;0.57;;
10122;SDS011;5101;49.038;8.710;2023-05-10T12:49:53;2.58;;;0.40;;
10122;SDS011;5101;49.038;8.710;2023-05-10T12:52:18;0.40;;;0.20;;
10122;SDS011;5101;49.038;8.710;2023-05-10T12:54:44;1.40;;;0.40;;
10122;SDS011;5101;49.038;8.710;2023-05-10T12:57:09;1.50;;;0.40;;
10122;SDS011;5101;49.038;8.710;2023-05-10T12:59:35;1.70;;;0.40;;
10122;SDS011;5101;49.038;8.710;2023-05-10T13:02:00;1.35;;;0.30;;
10122;SDS011;5101;49.038;8.710;2023-05-10T13:04:26;4.65;;;0.68;;
10122;SDS011;5101;49.038;8.710;2023-05-10T13:06:51;1.65;;;0.30;;
10122;SDS011;5101;49.038;8.710;2023-05-10T13:09:17;1.10;;;0.47;;
10122;SDS011;5101;49.038;8.710;2023-05-10T13:11:42;1.63;;;0.25;;
10122;SDS011;5101;49.038;8.710;2023-05-10T13:14:08;0.88;;;0.38;;
10122;SDS011;5101;49.038;8.710;2023-05-10T13:16:33;1.15;;;0.40;;
10122;SDS011;5101;49.038;8.710;2023-05-10T13:18:59;1.67;;;0.40;;
10122;SDS011;5101;49.038;8.710;2023-05-10T13:21:25;1.48;;;0.52;;
10122;SDS011;5101;49.038;8.710;2023-05-10T13:23:50;0.85;;;0.32;;
10122;SDS011;5101;49.038;8.710;2023-05-10T13:26:16;1.20;;;0.40;;
10122;SDS011;5101;49.038;8.710;2023-05-10T13:28:41;0.57;;;0.40;;
10122;SDS011;5101;49.038;8.710;2023-05-10T13:31:07;3.38;;;0.52;;
10122;SDS011;5101;49.038;8.710;2023-05-10T13:33:32;1.27;;;0.47;;
10122;SDS011;5101;49.038;8.710;2023-05-10T13:35:58;4.78;;;0.60;;
10122;SDS011;5101;49.038;8.710;2023-05-10T13:38:23;1.48;;;0.40;;
10122;SDS011;5101;49.038;8.710;2023-05-10T13:40:49;1.05;;;0.30;;
10122;SDS011;5101;49.038;8.710;2023-05-10T13:43:17;2.92;;;0.47;;
10122;SDS011;5101;49.038;8.710;2023-05-10T13:45:43;0.68;;;0.32;;
10122;SDS011;5101;49.038;8.710;2023-05-10T13:48:08;1.63;;;0.60;;
10122;SDS011;5101;49.038;8.710;2023-05-10T13:50:34;0.85;;;0.30;;
10122;SDS011;5101;49.038;8.710;2023-05-10T13:52:59;1.73;;;0.65;;
10122;SDS011;5101;49.038;8.710;2023-05-10T13:55:25;1.40;;;0.40;;
10122;SDS011;5101;49.038;8.710;2023-05-10T13:57:50;1.00;;;0.43;;
10122;SDS011;5101;49.038;8.710;2023-05-10T14:00:16;2.67;;;0.63;;
10122;SDS011;5101;49.038;8.710;2023-05-10T14:02:42;2.03;;;0.50;;
10122;SDS011;5101;49.038;8.710;2023-05-10T14:05:08;1.38;;;0.50;;
10122;SDS011;5101;49.038;8.710;2023-05-10T14:07:33;1.20;;;0.50;;
10122;SDS011;5101;49.038;8.710;2023-05-10T14:09:59;0.90;;;0.50;;
10122;SDS011;5101;49.038;8.710;2023-05-10T14:12:25;3.00;;;0.32;;
10122;SDS011;5101;49.038;8.710;2023-05-10T14:14:50;2.50;;;0.40;;
10122;SDS011;5101;49.038;8.710;2023-05-10T14:17:17;1.25;;;0.63;;
10122;SDS011;5101;49.038;8.710;2023-05-10T14:19:42;1.27;;;0.50;;
10122;SDS011;5101;49.038;8.710;2023-05-10T14:22:08;0.63;;;0.40;;
10122;SDS011;5101;49.038;8.710;2023-05-10T14:24:33;1.25;;;0.40;;
10122;SDS011;5101;49.038;8.710;2023-05-10T14:26:59;0.40;;;0.30;;
10122;SDS011;5101;49.038;8.710;2023-05-10T14:29:25;1.42;;;0.28;;
10122;SDS011;5101;49.038;8.710;2023-05-10T14:31:50;1.58;;;0.30;;
10122;SDS011;5101;49.038;8.710;2023-05-10T14:34:16;1.17;;;0.30;;
10122;SDS011;5101;49.038;8.710;2023-05-10T14:36:42;0.30;;;0.30;;
10122;SDS011;5101;49.038;8.710;2023-05-10T14:39:07;1.05;;;0.38;;
10122;SDS011;5101;49.038;8.710;2023-05-10T14:41:34;1.67;;;0.35;;
10122;SDS011;5101;49.038;8.710;2023-05-10T14:44:00;1.23;;;0.20;;
10122;SDS011;5101;49.038;8.710;2023-05-10T14:46:28;1.67;;;0.20;;
10122;SDS011;5101;49.038;8.710;2023-05-10T14:48:54;0.52;;;0.20;;
10122;SDS011;5101;49.038;8.710;2023-05-10T14:51:20;2.22;;;0.40;;
10122;SDS011;5101;49.038;8.710;2023-05-10T14:53:46;1.75;;;0.30;;
10122;SDS011;5101;49.038;8.710;2023-05-10T14:56:13;0.75;;;0.40;;
10122;SDS011;5101;49.038;8.710;2023-05-10T14:58:39;3.08;;;0.30;;
10122;SDS011;5101;49.038;8.710;2023-05-10T15:01:05;0.45;;;0.20;;
10122;SDS011;5101;49.038;8.710;2023-05-10T15:03:30;2.65;;;0.30;;
10122;SDS011;5101;49.038;8.710;2023-05-10T15:05:56;0.43;;;0.35;;
10122;SDS011;5101;49.038;8.710;2023-05-10T15:08:22;0.95;;;0.50;;
10122;SDS011;5101;49.038;8.710;2023-05-10T15:10:49;1.45;;;0.60;;
10122;SDS011;5101;49.038;8.710;2023-05-10T15:13:15;2.63;;;0.22;;
10122;SDS011;5101;49.038;8.710;2023-05-10T15:15:41;0.60;;;0.30;;
10122;SDS011;5101;49.038;8.710;2023-05-10T15:18:08;1.00;;;0.30;;
10122;SDS011;5101;49.038;8.710;2023-05-10T15:20:34;2.28;;;0.20;;
10122;SDS011;5101;49.038;8.710;2023-05-10T15:23:00;1.15;;;0.25;;
10122;SDS011;5101;49.038;8.710;2023-05-10T15:25:25;0.43;;;0.30;;
10122;SDS011;5101;49.038;8.710;2023-05-10T15:27:52;1.88;;;0.40;;
10122;SDS011;5101;49.038;8.710;2023-05-10T15:30:18;0.35;;;0.30;;